Time;durP1;ratioP1;P1;durP2;ratioP2;P2;SDS_P1;SDS_P2;PMS_P1;PMS_P2;Temp;Humidity;BMP_temperature;BMP_pressure;BME280_temperature;BME280_humidity;BME280_pressure;Samples;Min_cycle;Max_cycle;Signal;HPM_P1;HPM_P2
2023/08/28 00:00:38;;;;;;;7.78;6.88;;;;;;;11.65;100.00;101127.41;4984529;28;20021;-68
2023/08/28 00:03:04;;;;;;;12.10;7.28;;;;;;;11.69;100.00;101128.22;4995651;28;20033;-67
2023/08/28 00:05:32;;;;;;;7.15;6.32;;;;;;;11.66;100.00;101137.00;5016380;28;20029;-68
2023/08/28 00:07:58;;;;;;;7.65;6.25;;;;;;;11.66;100.00;101128.25;5025332;28;20028;-68
2023/08/28 00:10:25;;;;;;;9.45;6.43;;;;;;;11.69;100.00;101129.06;5028762;28;20029;-67
2023/08/28 00:12:51;;;;;;;6.53;5.80;;;;;;;11.63;100.00;101121.28;5019203;28;20076;-68
2023/08/28 00:15:17;;;;;;;7.25;5.93;;;;;;;11.53;100.00;101117.03;5011841;28;20029;-68
2023/08/28 00:17:42;;;;;;;8.27;6.28;;;;;;;11.54;100.00;101124.03;5026088;28;20107;-69
2023/08/28 00:20:08;;;;;;;6.45;5.80;;;;;;;11.44;100.00;101124.13;4996894;28;20025;-68
2023/08/28 00:22:37;;;;;;;7.93;6.40;;;;;;;11.39;100.00;101120.69;5022318;28;20386;-69
2023/08/28 00:25:04;;;;;;;8.82;6.30;;;;;;;11.38;100.00;101116.31;5014309;28;20063;-68
2023/08/28 00:27:29;;;;;;;6.78;5.90;;;;;;;11.35;100.00;101112.84;5008049;28;20036;-69
2023/08/28 00:29:55;;;;;;;7.30;6.03;;;;;;;11.33;100.00;101115.47;5013916;28;20029;-69
2023/08/28 00:32:20;;;;;;;7.45;6.20;;;;;;;11.25;100.00;101107.72;4999526;28;20044;-69
2023/08/28 00:34:45;;;;;;;7.53;6.40;;;;;;;11.24;100.00;101107.72;4986639;28;20095;-68
2023/08/28 00:37:12;;;;;;;7.07;6.25;;;;;;;11.21;100.00;101111.25;4999294;28;20091;-68
2023/08/28 00:39:38;;;;;;;7.45;6.13;;;;;;;11.31;100.00;101106.78;5006474;28;20021;-68
2023/08/28 00:42:04;;;;;;;9.73;6.80;;;;;;;11.34;100.00;101104.13;5021476;28;20568;-69
2023/08/28 00:44:30;;;;;;;6.95;6.10;;;;;;;11.23;100.00;101105.97;5017961;28;20048;-72
2023/08/28 00:46:56;;;;;;;7.82;6.60;;;;;;;11.11;100.00;101108.75;4981602;28;20033;-72
2023/08/28 00:49:22;;;;;;;10.23;6.30;;;;;;;11.12;100.00;101100.84;5015396;28;20056;-72
2023/08/28 00:51:49;;;;;;;7.07;6.28;;;;;;;11.11;100.00;101100.88;4984456;28;20030;-71
2023/08/28 00:54:14;;;;;;;7.20;5.55;;;;;;;11.06;100.00;101107.03;5027516;28;20031;-71
2023/08/28 00:56:43;;;;;;;6.50;5.82;;;;;;;10.94;100.00;101099.25;5013071;28;20136;-71
2023/08/28 00:59:09;;;;;;;7.38;6.50;;;;;;;10.93;100.00;101100.13;5034500;28;20087;-72
2023/08/28 01:01:34;;;;;;;7.03;6.32;;;;;;;10.93;100.00;101100.13;5025230;28;20029;-72
2023/08/28 01:04:00;;;;;;;8.02;6.60;;;;;;;10.89;100.00;101101.06;4985993;28;20409;-73
2023/08/28 01:06:51;;;;;;;7.10;6.40;;;;;;;10.90;100.00;101098.44;5024361;28;20041;-73
2023/08/28 01:09:32;;;;;;;6.75;5.65;;;;;;;10.82;100.00;101094.13;5041005;28;20045;-72
2023/08/28 01:12:12;;;;;;;7.70;6.22;;;;;;;10.73;100.00;101098.56;5027163;28;20025;-71
2023/08/28 01:14:56;;;;;;;9.15;6.75;;;;;;;10.73;100.00;101101.19;5028130;28;20017;-72
2023/08/28 01:17:24;;;;;;;8.25;7.25;;;;;;;10.67;100.00;101103.84;5025909;28;20400;-72
2023/08/28 01:19:50;;;;;;;10.40;7.40;;;;;;;10.73;100.00;101095.97;5009442;28;20063;-72
2023/08/28 01:22:32;;;;;;;8.70;7.80;;;;;;;10.69;100.00;101101.25;5008886;28;20033;-71
2023/08/28 01:25:10;;;;;;;8.55;7.75;;;;;;;10.69;100.00;101102.09;5028358;28;20029;-71
2023/08/28 01:27:41;;;;;;;7.13;6.43;;;;;;;10.62;100.00;101092.56;5024176;28;20093;-72
2023/08/28 01:30:12;;;;;;;8.40;7.57;;;;;;;10.60;100.00;101082.94;5026438;28;20385;-73
2023/08/28 01:32:39;;;;;;;9.40;8.38;;;;;;;10.62;100.00;101078.59;5014160;28;20048;-73
2023/08/28 01:35:14;;;;;;;10.10;8.40;;;;;;;10.61;100.00;101075.06;5022724;28;20546;-72
2023/08/28 01:38:01;;;;;;;11.43;9.95;;;;;;;10.62;100.00;101082.06;5034673;28;20702;-72
2023/08/28 01:40:55;;;;;;;11.23;8.32;;;;;;;10.57;100.00;101076.88;5039044;28;20040;-72
2023/08/28 01:43:23;;;;;;;10.82;7.82;;;;;;;10.58;100.00;101077.72;5009936;28;20401;-71
2023/08/28 01:45:53;;;;;;;8.85;7.95;;;;;;;10.60;100.00;101080.34;5020221;28;20025;-72
2023/08/28 01:48:19;;;;;;;10.00;8.80;;;;;;;10.56;100.00;101075.13;5006813;28;20140;-72
2023/08/28 01:50:44;;;;;;;11.30;8.80;;;;;;;10.58;100.00;101075.09;5043155;28;20124;-72
2023/08/28 01:53:11;;;;;;;8.95;8.10;;;;;;;10.49;100.00;101073.44;5017320;28;20040;-73
2023/08/28 01:55:46;;;;;;;11.98;10.10;;;;;;;10.56;100.00;101077.75;5020419;28;20040;-72
2023/08/28 01:58:15;;;;;;;9.57;8.68;;;;;;;10.49;100.00;101083.91;5025185;28;20393;-73
2023/08/28 02:00:41;;;;;;;10.35;9.38;;;;;;;10.52;100.00;101080.41;5036837;28;20491;-72
2023/08/28 02:03:09;;;;;;;9.30;8.07;;;;;;;10.51;100.00;101081.28;5000418;28;20393;-72
2023/08/28 02:05:34;;;;;;;10.63;8.50;;;;;;;10.44;100.00;101077.81;5017743;28;20025;-72
2023/08/28 02:08:00;;;;;;;10.55;9.32;;;;;;;10.49;100.00;101077.81;5019735;28;20040;-73
2023/08/28 02:10:25;;;;;;;11.40;9.18;;;;;;;10.43;100.00;101068.25;5010819;28;20026;-72
2023/08/28 02:12:51;;;;;;;10.52;9.40;;;;;;;10.41;100.00;101056.88;5010892;28;20029;-72
2023/08/28 02:15:16;;;;;;;10.27;9.27;;;;;;;10.39;100.00;101063.91;4993604;28;20699;-72
2023/08/28 02:17:42;;;;;;;11.40;10.20;;;;;;;10.43;100.00;101054.25;4980668;28;20021;-73
2023/08/28 02:20:09;;;;;;;11.32;9.68;;;;;;;10.38;100.00;101056.91;5008973;28;20165;-72
2023/08/28 02:22:35;;;;;;;11.30;9.90;;;;;;;10.39;100.00;101056.03;4999488;28;20041;-72
2023/08/28 02:25:00;;;;;;;10.68;9.52;;;;;;;10.28;100.00;101061.31;5033227;28;20024;-72
2023/08/28 02:27:26;;;;;;;10.88;9.77;;;;;;;10.17;100.00;101060.50;5013361;28;20400;-73
2023/08/28 02:29:51;;;;;;;13.82;11.00;;;;;;;10.29;100.00;101063.06;5014585;28;20032;-72
2023/08/28 02:32:17;;;;;;;11.32;9.95;;;;;;;10.25;100.00;101066.59;4997992;28;20068;-72
2023/08/28 02:34:45;;;;;;;11.77;10.15;;;;;;;10.26;100.00;101067.44;5001417;28;20025;-72
2023/08/28 02:37:11;;;;;;;12.30;10.35;;;;;;;10.23;100.00;101066.59;4997672;28;20042;-72
2023/08/28 02:39:36;;;;;;;12.68;9.98;;;;;;;10.23;100.00;101065.72;4997971;28;20029;-73
2023/08/28 02:42:02;;;;;;;11.48;9.63;;;;;;;10.18;100.00;101070.97;5032315;28;20047;-72
2023/08/28 02:44:27;;;;;;;12.57;10.50;;;;;;;10.10;100.00;101064.06;5011951;28;20033;-72
2023/08/28 02:46:53;;;;;;;14.80;11.90;;;;;;;10.10;100.00;101064.06;5025292;28;20477;-71
2023/08/28 02:49:18;;;;;;;15.15;13.60;;;;;;;10.19;100.00;101069.25;5012130;28;20118;-72
2023/08/28 02:51:46;;;;;;;16.90;12.13;;;;;;;10.06;100.00;101065.84;5009981;28;20052;-69
2023/08/28 02:54:11;;;;;;;16.45;12.68;;;;;;;10.12;100.00;101071.03;5025908;28;20038;-68
2023/08/28 02:56:40;;;;;;;15.10;13.68;;;;;;;10.09;100.00;101073.66;5027072;28;20094;-68
2023/08/28 02:59:07;;;;;;;15.20;13.27;;;;;;;10.04;100.00;101073.72;4991957;28;20055;-68
2023/08/28 03:01:35;;;;;;;14.93;11.80;;;;;;;10.03;100.00;101069.34;5002894;28;20013;-68
2023/08/28 03:04:04;;;;;;;12.20;10.95;;;;;;;9.95;100.00;101078.97;5023764;28;20099;-69
2023/08/28 03:06:30;;;;;;;13.13;11.80;;;;;;;9.93;100.00;101075.50;5009896;28;20488;-68
2023/08/28 03:08:55;;;;;;;14.48;12.27;;;;;;;10.02;100.00;101070.22;5032751;28;20051;-69
2023/08/28 03:11:21;;;;;;;11.20;10.20;;;;;;;9.97;100.00;101077.25;5004959;28;20025;-68
2023/08/28 03:13:46;;;;;;;11.98;10.90;;;;;;;9.90;100.00;101088.63;4982539;28;20073;-68
2023/08/28 03:16:12;;;;;;;16.10;13.38;;;;;;;9.95;100.00;101081.59;5002633;28;20059;-68
2023/08/28 03:18:37;;;;;;;12.35;11.10;;;;;;;9.88;100.00;101083.41;5031706;28;20075;-68
2023/08/28 03:21:03;;;;;;;15.30;12.52;;;;;;;9.78;100.00;101078.19;4983811;28;20369;-68
2023/08/28 03:23:28;;;;;;;15.73;14.02;;;;;;;9.82;100.00;101090.41;5023531;28;20037;-69
2023/08/28 03:25:56;;;;;;;14.45;12.95;;;;;;;9.83;100.00;101090.38;4982491;28;20480;-69
2023/08/28 03:28:21;;;;;;;12.15;11.05;;;;;;;9.77;100.00;101100.00;5012751;28;20094;-69
2023/08/28 03:30:47;;;;;;;15.65;14.05;;;;;;;9.77;100.00;101097.38;5025432;28;20396;-69
2023/08/28 03:33:12;;;;;;;14.45;13.02;;;;;;;9.77;100.00;101103.50;4995761;28;20033;-69
2023/08/28 03:35:38;;;;;;;13.50;12.27;;;;;;;9.78;100.00;101104.38;5000937;28;20124;-69
2023/08/28 03:38:03;;;;;;;15.10;13.45;;;;;;;9.69;100.00;101103.53;4982998;28;20027;-68
2023/08/28 03:40:29;;;;;;;16.30;14.43;;;;;;;9.81;100.00;101104.34;4984357;28;20425;-69
2023/08/28 03:42:54;;;;;;;16.45;14.85;;;;;;;9.75;100.00;101109.63;4983514;28;20116;-69
2023/08/28 03:45:22;;;;;;;17.08;15.40;;;;;;;9.78;100.00;101118.31;4983448;28;20037;-68
2023/08/28 03:47:50;;;;;;;17.90;16.17;;;;;;;9.79;100.00;101124.44;4996554;28;20034;-68
2023/08/28 03:50:15;;;;;;;17.88;15.98;;;;;;;9.76;100.00;101124.44;5028398;28;20487;-69
2023/08/28 03:52:41;;;;;;;16.17;13.90;;;;;;;9.64;100.00;101123.63;5007754;28;20033;-69
2023/08/28 03:55:08;;;;;;;14.65;13.20;;;;;;;9.60;100.00;101131.50;5018976;28;20065;-69
2023/08/28 03:57:34;;;;;;;16.33;14.88;;;;;;;9.81;100.00;101135.75;5005726;28;20531;-69
2023/08/28 04:00:00;;;;;;;18.67;16.90;;;;;;;9.85;100.00;101132.25;4983373;28;20041;-69
2023/08/28 04:02:25;;;;;;;19.63;17.73;;;;;;;9.96;100.00;101140.94;4992040;28;20028;-69
2023/08/28 04:04:51;;;;;;;20.55;18.48;;;;;;;10.04;100.00;101138.28;5020316;28;20037;-69
2023/08/28 04:07:26;;;;;;;20.95;18.95;;;;;;;10.13;100.00;101138.25;5011491;28;20041;-68
2023/08/28 04:09:52;;;;;;;20.58;18.48;;;;;;;10.13;100.00;101142.59;5001449;28;20034;-68
2023/08/28 04:12:17;;;;;;;21.15;18.92;;;;;;;10.17;100.00;101146.94;5024813;28;20067;-68
2023/08/28 04:14:43;;;;;;;20.38;18.38;;;;;;;10.23;100.00;101144.31;4997259;28;20037;-69
2023/08/28 04:17:08;;;;;;;24.00;20.70;;;;;;;10.30;100.00;101153.88;5014763;28;20133;-68
2023/08/28 04:19:35;;;;;;;22.90;20.60;;;;;;;10.32;100.00;101140.75;4990956;28;20072;-68
2023/08/28 04:22:01;;;;;;;23.27;20.98;;;;;;;10.40;100.00;101145.09;5016941;28;20028;-69
2023/08/28 04:24:26;;;;;;;22.80;20.52;;;;;;;10.43;100.00;101143.34;5042913;28;20029;-69
2023/08/28 04:26:52;;;;;;;22.60;20.23;;;;;;;10.48;100.00;101139.81;5015777;28;20037;-68
2023/08/28 04:29:17;;;;;;;22.45;20.35;;;;;;;10.51;100.00;101136.31;5013284;28;20022;-69
2023/08/28 04:31:45;;;;;;;23.95;21.52;;;;;;;10.57;100.00;101141.50;5009922;28;20026;-69
2023/08/28 04:34:10;;;;;;;21.58;19.40;;;;;;;10.58;100.00;101141.47;5013318;28;20033;-69
2023/08/28 04:36:36;;;;;;;19.05;17.08;;;;;;;10.62;100.00;101149.34;5012099;28;20041;-69
2023/08/28 04:39:01;;;;;;;19.27;17.38;;;;;;;10.61;100.00;101151.06;4981205;28;20079;-69
2023/08/28 04:41:27;;;;;;;18.80;16.80;;;;;;;10.52;100.00;101143.28;5025148;28;20082;-69
2023/08/28 04:43:52;;;;;;;19.98;17.90;;;;;;;10.55;100.00;101140.66;5048172;23;20050;-72
2023/08/28 04:46:19;;;;;;;16.90;15.13;;;;;;;10.54;100.00;101138.91;4985296;28;20046;-73
2023/08/28 04:48:44;;;;;;;15.73;14.23;;;;;;;10.52;100.00;101135.44;5010591;28;20034;-73
2023/08/28 04:51:10;;;;;;;15.25;13.75;;;;;;;10.49;100.00;101132.84;4995351;28;20370;-72
2023/08/28 04:53:35;;;;;;;16.25;14.60;;;;;;;10.50;100.00;101127.59;5003502;28;20356;-73
2023/08/28 04:56:00;;;;;;;16.23;14.43;;;;;;;10.51;100.00;101123.19;4993796;28;20463;-72
2023/08/28 04:58:26;;;;;;;13.77;12.48;;;;;;;10.51;100.00;101117.97;4992498;28;20462;-72
2023/08/28 05:00:51;;;;;;;16.42;14.77;;;;;;;10.45;100.00;101115.38;5070484;23;20510;-72
2023/08/28 05:03:17;;;;;;;15.77;14.18;;;;;;;10.40;100.00;101120.63;5043341;28;20093;-73
2023/08/28 05:05:43;;;;;;;17.88;16.17;;;;;;;10.54;100.00;101133.66;5038503;28;20040;-73
2023/08/28 05:08:09;;;;;;;14.60;13.18;;;;;;;10.48;100.00;101118.84;5054433;28;20024;-72
2023/08/28 05:13:09;;;;;;;14.18;12.75;;;;;;;10.68;100.00;101115.22;5459026;22;20052;-72
2023/08/28 05:15:36;;;;;;;14.57;13.25;;;;;;;10.80;100.00;101116.88;5040316;28;20040;-72
2023/08/28 05:18:01;;;;;;;14.73;12.60;;;;;;;10.74;100.00;101110.78;5079719;23;20408;-69
2023/08/28 05:20:28;;;;;;;15.23;13.18;;;;;;;10.89;100.00;101117.66;5102556;22;20048;-71
2023/08/28 05:22:55;;;;;;;15.75;13.80;;;;;;;10.93;100.00;101110.63;5122853;22;20052;-67
2023/08/28 05:25:21;;;;;;;14.13;12.70;;;;;;;11.08;100.00;101126.22;5059462;28;20036;-72
2023/08/28 05:27:46;;;;;;;14.00;12.60;;;;;;;11.20;100.00;101113.88;5277147;22;20560;-69
2023/08/28 05:30:13;;;;;;;13.95;12.57;;;;;;;11.21;100.00;101121.72;5360693;22;20004;-71
2023/08/28 05:32:38;;;;;;;14.43;13.07;;;;;;;11.38;100.00;101118.09;5089019;28;20044;-69
2023/08/28 05:35:05;;;;;;;16.42;14.82;;;;;;;11.43;100.00;101121.50;5044431;28;20448;-69
2023/08/28 05:37:31;;;;;;;15.38;13.98;;;;;;;11.67;100.00;101116.88;5032543;28;20384;-69
2023/08/28 05:39:57;;;;;;;16.10;14.50;;;;;;;11.82;100.00;101118.44;5037308;28;20120;-69
2023/08/28 05:42:22;;;;;;;15.70;14.20;;;;;;;12.00;100.00;101120.88;5054645;28;20112;-69
2023/08/28 05:44:48;;;;;;;15.48;13.95;;;;;;;12.28;100.00;101112.59;5059651;28;20032;-69
2023/08/28 05:47:14;;;;;;;14.63;13.07;;;;;;;12.51;100.00;101114.00;5049564;28;20037;-69
2023/08/28 05:49:39;;;;;;;14.65;13.20;;;;;;;12.68;100.00;101122.50;5044390;28;20037;-69
2023/08/28 05:52:05;;;;;;;13.95;12.50;;;;;;;12.87;100.00;101127.47;5036038;28;20043;-69
2023/08/28 05:54:30;;;;;;;14.63;13.13;;;;;;;13.10;100.00;101130.59;5058329;28;20040;-69
2023/08/28 05:56:56;;;;;;;15.63;14.13;;;;;;;12.99;100.00;101127.28;5017463;28;20039;-69
2023/08/28 05:59:21;;;;;;;15.30;13.80;;;;;;;13.35;100.00;101138.06;5051418;28;20125;-69
2023/08/28 06:01:47;;;;;;;16.02;14.52;;;;;;;13.44;100.00;101135.25;5034968;28;20028;-69
2023/08/28 06:04:12;;;;;;;14.93;13.48;;;;;;;13.70;100.00;101136.50;5037505;28;20036;-69
2023/08/28 06:06:38;;;;;;;16.30;14.70;;;;;;;13.79;100.00;101120.53;5046722;28;20435;-69
2023/08/28 06:09:04;;;;;;;15.07;13.63;;;;;;;14.96;100.00;101126.69;5037694;28;20026;-68
2023/08/28 06:11:30;;;;;;;13.13;11.50;;;;;;;16.20;90.71;101129.41;5040668;28;20056;-69
2023/08/28 06:13:55;;;;;;;11.13;10.02;;;;;;;17.54;83.27;101135.59;5045332;28;20057;-69
2023/08/28 06:16:21;;;;;;;11.63;10.52;;;;;;;19.56;76.77;101129.31;5059471;28;20078;-68
2023/08/28 06:18:46;;;;;;;9.63;8.70;;;;;;;20.70;71.35;101129.34;5036004;28;20112;-69
2023/08/28 06:21:12;;;;;;;8.65;7.80;;;;;;;21.80;65.82;101124.53;5039785;28;20029;-69
2023/08/28 06:23:37;;;;;;;9.20;7.85;;;;;;;23.29;60.47;101126.81;5044642;28;20025;-71
2023/08/28 06:26:03;;;;;;;8.52;7.68;;;;;;;23.93;57.50;101132.66;5016096;28;20029;-69
2023/08/28 06:28:29;;;;;;;7.60;6.53;;;;;;;24.66;54.79;101136.03;5050872;28;20048;-69
2023/08/28 06:30:55;;;;;;;6.70;6.10;;;;;;;25.32;54.24;101138.78;5055412;28;20053;-69
2023/08/28 06:33:20;;;;;;;7.25;6.50;;;;;;;26.02;51.53;101146.34;5031734;28;20033;-69
2023/08/28 06:35:46;;;;;;;7.68;6.55;;;;;;;26.87;50.03;101136.59;5056213;28;20473;-69
2023/08/28 06:38:12;;;;;;;8.35;6.63;;;;;;;27.30;47.50;101138.66;5074832;28;20029;-69
2023/08/28 06:40:38;;;;;;;14.23;6.65;;;;;;;28.14;46.81;101141.91;5067464;28;20033;-69
2023/08/28 06:43:03;;;;;;;8.60;5.70;;;;;;;27.78;47.65;101134.91;5033682;28;20025;-69
2023/08/28 06:45:29;;;;;;;6.95;6.25;;;;;;;26.22;48.25;101139.53;5022792;28;20554;-69
2023/08/28 06:47:57;;;;;;;7.65;6.88;;;;;;;25.11;50.09;101141.91;5015672;28;20097;-69
2023/08/28 06:50:23;;;;;;;7.28;6.57;;;;;;;24.38;53.26;101132.47;5035696;28;20060;-69
2023/08/28 06:52:48;;;;;;;7.90;6.93;;;;;;;24.47;55.42;101137.22;5046091;28;20021;-69
2023/08/28 06:55:17;;;;;;;9.75;7.07;;;;;;;24.40;57.06;101143.94;5045222;28;20389;-69
2023/08/28 06:57:42;;;;;;;10.13;7.03;;;;;;;25.51;54.52;101157.13;5045921;28;20127;-69
2023/08/28 07:00:11;;;;;;;7.95;7.13;;;;;;;26.33;53.00;101162.06;5048858;28;20461;-70
2023/08/28 07:02:36;;;;;;;9.10;7.18;;;;;;;25.68;52.47;101166.66;5049099;28;20095;-70
2023/08/28 07:05:02;;;;;;;8.88;7.97;;;;;;;25.21;54.15;101160.91;5052060;28;20040;-69
2023/08/28 07:07:27;;;;;;;8.48;6.88;;;;;;;25.37;53.77;101171.47;5049386;28;20381;-70
2023/08/28 07:09:53;;;;;;;8.63;7.72;;;;;;;25.02;53.45;101164.00;5018545;28;20125;-70
2023/08/28 07:12:18;;;;;;;7.53;6.65;;;;;;;25.64;56.07;101167.84;5051662;28;20041;-70
2023/08/28 07:14:44;;;;;;;7.45;6.38;;;;;;;25.82;55.67;101171.91;5050952;28;20082;-70
2023/08/28 07:17:09;;;;;;;7.65;6.82;;;;;;;26.14;54.93;101168.78;5056659;28;20485;-70
2023/08/28 07:19:34;;;;;;;7.10;6.40;;;;;;;26.08;51.73;101167.38;5035744;28;20041;-70
2023/08/28 07:22:00;;;;;;;6.93;6.20;;;;;;;25.37;51.68;101164.31;5075991;28;20021;-70
2023/08/28 07:24:26;;;;;;;7.22;6.43;;;;;;;24.25;53.62;101155.66;5057429;28;20478;-69
2023/08/28 07:26:52;;;;;;;7.43;6.78;;;;;;;23.72;56.63;101166.06;5055693;28;20086;-70
2023/08/28 07:29:17;;;;;;;7.45;6.65;;;;;;;23.35;60.65;101163.84;5045082;28;20275;-73
2023/08/28 07:31:43;;;;;;;8.57;6.80;;;;;;;23.58;59.72;101164.28;5057477;28;20068;-69
2023/08/28 07:34:09;;;;;;;8.45;7.28;;;;;;;23.26;59.23;101151.03;5050437;28;20361;-69
2023/08/28 07:36:37;;;;;;;7.93;7.05;;;;;;;23.71;60.47;101157.19;5021819;28;20429;-69
2023/08/28 07:39:03;;;;;;;7.28;6.60;;;;;;;23.77;60.86;101148.78;5044970;28;20136;-70
2023/08/28 07:41:28;;;;;;;7.15;6.45;;;;;;;22.97;63.29;101142.91;5044941;28;20111;-70
2023/08/28 07:43:54;;;;;;;7.78;6.25;;;;;;;22.63;64.41;101142.22;5053704;28;20070;-70
2023/08/28 07:46:19;;;;;;;7.82;5.60;;;;;;;22.64;62.96;101146.59;5073046;28;20086;-69
2023/08/28 07:48:45;;;;;;;7.05;5.80;;;;;;;22.34;64.72;101147.44;5070542;28;20399;-69
2023/08/28 07:51:10;;;;;;;7.28;5.90;;;;;;;22.06;66.73;101150.75;5043406;28;20037;-69
2023/08/28 07:53:36;;;;;;;6.60;5.60;;;;;;;21.98;66.17;101148.50;5035014;28;20045;-69
2023/08/28 07:56:02;;;;;;;6.20;5.18;;;;;;;22.04;67.12;101157.94;5062493;28;20116;-70
2023/08/28 07:58:29;;;;;;;5.60;4.85;;;;;;;22.87;66.42;101152.44;5021004;28;20037;-69
2023/08/28 08:00:54;;;;;;;7.25;4.80;;;;;;;22.95;63.43;101147.50;5072172;28;20029;-69
2023/08/28 08:03:20;;;;;;;4.93;3.40;;;;;;;22.59;63.26;101149.53;5061705;28;20116;-69
2023/08/28 08:05:47;;;;;;;6.07;4.35;;;;;;;22.08;61.89;101147.03;5071714;28;20017;-69
2023/08/28 08:08:12;;;;;;;4.60;3.95;;;;;;;21.78;62.94;101153.09;5064271;28;20036;-69
2023/08/28 08:10:39;;;;;;;5.97;4.28;;;;;;;21.51;64.12;101160.78;5071524;28;20024;-69
2023/08/28 08:13:04;;;;;;;6.13;4.28;;;;;;;21.34;65.12;101153.63;5063391;28;20045;-69
2023/08/28 08:15:31;;;;;;;5.50;4.22;;;;;;;20.85;67.29;101153.47;5070058;28;20025;-69
2023/08/28 08:17:57;;;;;;;6.18;3.42;;;;;;;21.10;67.09;101145.97;5035492;28;20029;-69
2023/08/28 08:20:22;;;;;;;4.03;3.38;;;;;;;21.57;65.63;101148.91;5052133;28;20315;-69
2023/08/28 08:22:48;;;;;;;2.53;2.28;;;;;;;21.83;63.77;101155.53;5044146;28;20028;-69
2023/08/28 08:25:13;;;;;;;3.38;2.60;;;;;;;21.85;62.23;101158.97;5058914;28;20064;-69
2023/08/28 08:27:39;;;;;;;3.17;2.03;;;;;;;21.91;63.69;101152.41;5020133;28;20056;-69
2023/08/28 08:30:08;;;;;;;3.80;1.95;;;;;;;21.71;62.80;101156.19;5067049;28;20040;-69
2023/08/28 08:32:33;;;;;;;3.60;2.55;;;;;;;21.20;64.31;101161.47;5054342;28;20132;-69
2023/08/28 08:34:59;;;;;;;4.47;2.85;;;;;;;21.37;64.05;101164.13;5089904;28;20127;-69
2023/08/28 08:37:28;;;;;;;3.78;2.50;;;;;;;20.43;64.29;101153.66;5062005;28;20518;-68
2023/08/28 08:39:53;;;;;;;4.38;2.33;;;;;;;19.95;65.78;101160.34;5072480;28;20059;-68
2023/08/28 08:42:21;;;;;;;4.40;2.38;;;;;;;19.65;68.04;101157.25;5069658;28;20040;-69
2023/08/28 08:44:47;;;;;;;2.92;2.40;;;;;;;19.57;68.50;101149.63;5071588;28;20054;-69
2023/08/28 08:47:15;;;;;;;3.33;2.33;;;;;;;19.77;66.99;101161.16;5052675;28;20057;-69
2023/08/28 08:49:42;;;;;;;3.45;2.13;;;;;;;19.77;67.45;101156.72;5071939;28;20294;-69
2023/08/28 08:52:09;;;;;;;3.58;2.20;;;;;;;19.70;68.50;101163.25;5072337;28;20358;-69
2023/08/28 08:54:39;;;;;;;2.38;1.70;;;;;;;19.58;67.67;101159.31;5057542;28;20043;-68
2023/08/28 08:57:42;;;;;;;2.95;1.65;;;;;;;19.59;68.92;101168.19;5066898;28;20040;-69
2023/08/28 09:00:13;;;;;;;3.88;2.58;;;;;;;19.13;70.76;101155.94;5079181;28;20032;-68
2023/08/28 09:02:40;;;;;;;4.22;2.83;;;;;;;18.98;68.94;101152.16;5058594;28;20025;-68
2023/08/28 09:05:06;;;;;;;3.10;2.78;;;;;;;18.99;71.98;101147.69;5061423;28;20025;-69
2023/08/28 09:07:35;;;;;;;4.55;2.60;;;;;;;19.08;70.80;101163.25;5065124;28;20031;-68
2023/08/28 09:10:02;;;;;;;3.83;2.88;;;;;;;19.07;72.31;101144.75;5052792;28;20439;-69
2023/08/28 09:12:28;;;;;;;3.78;2.35;;;;;;;19.20;70.46;101153.91;5068807;28;20039;-69
2023/08/28 09:14:53;;;;;;;4.93;2.55;;;;;;;19.33;71.32;101157.75;5053182;28;20036;-68
2023/08/28 09:17:20;;;;;;;4.90;2.75;;;;;;;19.26;70.72;101150.97;5052198;28;20025;-69
2023/08/28 09:19:45;;;;;;;4.10;3.20;;;;;;;19.31;73.14;101146.34;5066360;28;20099;-68
2023/08/28 09:22:11;;;;;;;6.75;5.43;;;;;;;19.06;72.50;101154.47;5062596;28;20024;-68
2023/08/28 09:24:37;;;;;;;5.88;4.10;;;;;;;18.96;71.91;101154.00;5032718;28;20047;-68
2023/08/28 09:27:03;;;;;;;5.57;4.35;;;;;;;19.00;70.64;101150.28;5035722;28;20043;-69
2023/08/28 09:29:29;;;;;;;6.63;4.13;;;;;;;19.00;73.41;101155.59;5033428;28;20025;-69
2023/08/28 09:32:05;;;;;;;4.65;3.50;;;;;;;18.93;74.77;101159.44;5047774;28;20060;-68
2023/08/28 09:34:38;;;;;;;6.38;4.90;;;;;;;18.75;76.38;101154.84;5048812;28;20020;-68
2023/08/28 09:37:09;;;;;;;6.10;5.10;;;;;;;18.65;77.27;101159.69;5047858;28;20021;-69
2023/08/28 09:39:38;;;;;;;7.13;5.05;;;;;;;18.50;79.33;101151.44;5033226;28;20025;-68
2023/08/28 09:42:05;;;;;;;7.72;6.15;;;;;;;18.59;79.10;101160.81;5051417;28;20029;-68
2023/08/28 09:44:36;;;;;;;10.65;7.22;;;;;;;18.35;78.13;101154.69;5058633;28;20457;-68
2023/08/28 09:47:02;;;;;;;8.90;5.22;;;;;;;18.49;80.33;101155.00;5034743;28;20040;-68
2023/08/28 09:49:28;;;;;;;9.00;5.95;;;;;;;18.60;80.60;101161.66;5071090;28;20076;-68
2023/08/28 09:51:57;;;;;;;6.32;5.72;;;;;;;18.43;80.13;101164.97;5069757;28;20032;-68
2023/08/28 09:54:23;;;;;;;6.43;4.90;;;;;;;18.44;78.94;101167.56;5087267;28;20079;-68
2023/08/28 09:56:49;;;;;;;5.60;4.93;;;;;;;18.66;79.31;101170.25;5061272;28;20121;-69
2023/08/28 09:59:17;;;;;;;6.15;5.00;;;;;;;18.88;80.38;101164.09;5048321;28;20029;-68
2023/08/28 10:01:46;;;;;;;5.53;5.00;;;;;;;19.02;78.70;101169.69;5017598;28;20040;-68
2023/08/28 10:04:14;;;;;;;6.53;5.38;;;;;;;19.01;77.28;101170.63;5052183;28;20392;-68
2023/08/28 10:06:53;;;;;;;4.93;4.53;;;;;;;19.16;77.87;101166.44;5081610;28;20302;-69
2023/08/28 10:09:19;;;;;;;5.22;4.30;;;;;;;18.90;76.37;101164.88;5069168;28;20024;-68
2023/08/28 10:11:46;;;;;;;5.55;4.30;;;;;;;18.90;73.83;101164.88;5051274;28;20075;-68
2023/08/28 10:14:13;;;;;;;6.22;3.85;;;;;;;19.09;77.41;101167.63;5068815;28;20388;-68
2023/08/28 10:16:47;;;;;;;6.45;4.65;;;;;;;19.22;77.53;101170.63;5060140;28;20040;-68
2023/08/28 10:19:21;;;;;;;5.80;5.25;;;;;;;19.15;78.45;101170.03;5067848;28;20032;-68
2023/08/28 10:21:48;;;;;;;5.72;5.22;;;;;;;19.14;78.19;101160.34;5063349;28;20357;-68
2023/08/28 10:24:16;;;;;;;7.18;5.15;;;;;;;19.10;77.65;101165.84;5063273;28;20048;-68
2023/08/28 10:26:44;;;;;;;5.68;5.18;;;;;;;19.19;77.84;101163.69;5067337;28;20025;-68
2023/08/28 10:29:10;;;;;;;6.63;5.05;;;;;;;19.16;78.13;101169.09;5050639;28;20036;-68
2023/08/28 10:31:38;;;;;;;5.65;5.15;;;;;;;19.16;77.72;101168.25;5037904;28;20378;-68
2023/08/28 10:34:05;;;;;;;6.07;5.47;;;;;;;19.11;78.58;101168.44;5063010;28;20108;-69
2023/08/28 10:36:32;;;;;;;6.25;5.65;;;;;;;19.04;79.21;101170.47;5066106;28;20052;-69
2023/08/28 10:39:00;;;;;;;6.30;4.90;;;;;;;18.95;76.45;101167.34;5032870;28;20039;-69
2023/08/28 10:41:29;;;;;;;6.45;4.68;;;;;;;18.87;76.70;101171.19;5058576;28;20027;-68
2023/08/28 10:43:57;;;;;;;3.87;3.20;;;;;;;18.83;72.00;101171.34;5070977;28;20036;-69
2023/08/28 10:46:27;;;;;;;4.20;3.90;;;;;;;18.81;73.31;101166.09;5064264;28;20059;-68
2023/08/28 10:48:57;;;;;;;4.78;4.18;;;;;;;18.97;76.83;101169.00;5066754;28;20029;-69
2023/08/28 10:51:30;;;;;;;3.90;3.60;;;;;;;18.89;75.04;101164.94;5068441;28;20469;-68
2023/08/28 10:54:09;;;;;;;4.70;3.45;;;;;;;19.00;73.18;101160.91;5066149;28;20055;-69
2023/08/28 10:56:37;;;;;;;4.15;3.75;;;;;;;18.84;75.19;101165.97;5069151;28;20033;-69
2023/08/28 10:59:18;;;;;;;3.83;3.35;;;;;;;18.99;72.63;101164.53;5082461;28;20024;-68
2023/08/28 11:01:53;;;;;;;3.67;2.72;;;;;;;18.99;74.32;101156.56;5060507;28;20024;-68
2023/08/28 11:04:19;;;;;;;3.05;2.17;;;;;;;18.94;71.41;101155.88;5059569;28;20035;-69
2023/08/28 11:06:45;;;;;;;8.50;2.70;;;;;;;18.98;73.09;101154.81;5080494;28;20021;-68
2023/08/28 11:09:26;;;;;;;3.30;2.50;;;;;;;19.07;73.08;101150.91;5067118;28;20055;-68
2023/08/28 11:11:52;;;;;;;2.55;2.30;;;;;;;19.07;74.58;101155.38;5081622;28;20048;-68
2023/08/28 11:14:17;;;;;;;2.42;2.20;;;;;;;18.94;75.03;101152.34;5057479;28;20167;-69
2023/08/28 11:16:43;;;;;;;4.18;1.85;;;;;;;18.93;73.65;101148.81;5048880;28;20441;-68